Portada
METAR-TAF:

METAR-TAF

Aeropuertos :

Aeropuerto de Madrid-Barajas

Madrid, España

latitud: 40-27N, longitud: 003-33W, altitud: 609 m

Observación

El informe se hizo hace 27 minutos, a las 14:00 UTC
Viento 2 kt con dirección variable
Temperatura 15°C
Humedad 29%
Presión 1030 hPa
Visibilidad 10 km o más
sin nubes por debajo de 1500 m y sin presencia de cumulonimbus.

METAR: LEMD 031400Z VRB02KT CAVOK 15/M03 Q1030 NOSIG

Hora: 15:27 (14:27 UTC)

Pronóstico

El informe se hizo hace 3 horas y 27 minutos, a las 11:00 UTC
Pronóstico válido del 03 a las 12 UTC al 04 a las 18 UTC
Viento 3 kt con dirección variable
Visibilidad 10 km o más
sin nubes por debajo de 1500 m y sin presencia de cumulonimbus.

TAF: LEMD 031100Z 0312/0418 VRB03KT CAVOK TX18/0415Z TNM03/0406Z

Observaciones y pronósticos meteorológicos de más de 4000 aeropuertos (mensajes METAR y TAF).

Los puntos amarillos y rojos representan las estaciones disponibles.

Ponga el ratón en el punto deseado para ver el nombre de la estación.

Haga clic para ver las observaciones y los pronósticos meteorológicos.

Para cambiar el mapa : haga clic en los botones verdes con una cruz de color negro para hacer un zoom, en el botón verde con un guión para alejar o en las flechas verdes para mapas adyacentes.


METAR-TAF: